createdAt,value
2023-04-08T00:00:56.926Z,96.32
2023-04-08T00:03:25.191Z,96.69
2023-04-08T00:05:54.518Z,96.69
2023-04-08T00:08:22.707Z,96.42
2023-04-08T00:10:50.641Z,96.16
2023-04-08T00:13:20.260Z,96.06
2023-04-08T00:15:48.150Z,96.18
2023-04-08T00:18:17.619Z,95.72
2023-04-08T00:20:46.428Z,96.07
2023-04-08T00:23:14.471Z,95.56
2023-04-08T00:25:42.642Z,95.43
2023-04-08T00:28:10.650Z,95.83
2023-04-08T00:30:40.012Z,95.47
2023-04-08T00:33:08.701Z,96.28
2023-04-08T00:35:36.675Z,96.18
2023-04-08T00:38:07.898Z,95.50
2023-04-08T00:40:36.395Z,95.79
2023-04-08T00:43:04.403Z,95.97
2023-04-08T00:45:32.362Z,96.42
2023-04-08T00:48:03.191Z,96.45
2023-04-08T00:50:31.479Z,96.54
2023-04-08T00:52:59.444Z,96.71
2023-04-08T00:55:27.417Z,96.33
2023-04-08T00:57:57.709Z,96.86
2023-04-08T01:00:26.217Z,96.57
2023-04-08T01:03:09.517Z,96.87
2023-04-08T01:05:54.842Z,97.02
2023-04-08T01:08:26.889Z,96.64
2023-04-08T01:11:02.384Z,96.20
2023-04-08T01:13:38.590Z,96.26
2023-04-08T01:16:07.894Z,96.34
2023-04-08T01:18:39.560Z,96.42
2023-04-08T01:21:09.066Z,96.18
2023-04-08T01:23:47.754Z,96.77
2023-04-08T01:26:25.589Z,96.72
2023-04-08T01:28:57.122Z,96.14
2023-04-08T01:31:26.796Z,96.61
2023-04-08T01:33:56.422Z,96.44
2023-04-08T01:36:26.896Z,97.18
2023-04-08T01:38:55.057Z,96.76
2023-04-08T01:41:24.912Z,96.35
2023-04-08T01:43:54.919Z,96.84
2023-04-08T01:46:23.814Z,97.45
2023-04-08T01:48:53.517Z,97.33
2023-04-08T01:51:23.461Z,97.27
2023-04-08T01:53:51.587Z,96.83
2023-04-08T01:56:28.121Z,97.33
2023-04-08T01:59:01.765Z,97.34
2023-04-08T02:01:33.736Z,97.10
2023-04-08T02:04:04.613Z,97.53
2023-04-08T02:06:33.627Z,97.44
2023-04-08T02:09:02.228Z,97.14
2023-04-08T02:11:31.692Z,96.86
2023-04-08T02:14:00.046Z,96.49
2023-04-08T02:16:44.005Z,96.96
2023-04-08T02:19:21.075Z,96.92
2023-04-08T02:21:58.645Z,96.42
2023-04-08T02:24:29.072Z,96.91
2023-04-08T02:27:00.012Z,96.96
2023-04-08T02:29:32.563Z,97.04
2023-04-08T02:32:03.225Z,97.01
2023-04-08T02:34:32.853Z,96.83
2023-04-08T02:37:00.724Z,97.21
2023-04-08T02:39:33.006Z,96.94
2023-04-08T02:42:02.369Z,97.11
2023-04-08T02:44:30.444Z,96.97
2023-04-08T02:46:58.455Z,97.04
2023-04-08T02:49:26.400Z,97.08
2023-04-08T02:51:54.289Z,96.89
2023-04-08T02:54:22.232Z,96.90
2023-04-08T02:56:50.167Z,97.04
2023-04-08T02:59:19.546Z,97.35
2023-04-08T03:01:47.654Z,96.94
2023-04-08T03:04:15.900Z,97.00
2023-04-08T03:06:43.917Z,96.54
2023-04-08T03:09:11.966Z,96.49
2023-04-08T03:11:40.043Z,96.68
2023-04-08T03:14:08.074Z,96.36
2023-04-08T03:16:37.455Z,96.53
2023-04-08T03:19:05.435Z,96.29
2023-04-08T03:21:33.508Z,96.31
2023-04-08T03:24:01.551Z,96.14
2023-04-08T03:26:29.668Z,96.69
2023-04-08T03:28:57.824Z,96.64
2023-04-08T03:31:26.985Z,96.58
2023-04-08T03:33:56.416Z,96.27
2023-04-08T03:36:24.484Z,96.98
2023-04-08T03:38:52.622Z,97.02
2023-04-08T03:41:21.201Z,96.66
2023-04-08T03:43:49.257Z,97.14
2023-04-08T03:46:17.353Z,96.87
2023-04-08T03:48:45.369Z,96.84
2023-04-08T03:51:14.729Z,97.00
2023-04-08T03:53:42.950Z,97.14
2023-04-08T03:56:11.195Z,97.26
2023-04-08T03:58:39.226Z,96.84
2023-04-08T04:01:07.263Z,97.34
2023-04-08T04:03:35.496Z,97.03
2023-04-08T04:06:03.542Z,97.03
2023-04-08T04:08:33.113Z,96.96
2023-04-08T04:11:00.935Z,97.50
2023-04-08T04:13:29.016Z,97.28
2023-04-08T04:15:57.672Z,97.49
2023-04-08T04:18:25.755Z,97.69
2023-04-08T04:20:53.860Z,97.31
2023-04-08T04:23:24.280Z,97.60
2023-04-08T04:25:53.630Z,97.28
2023-04-08T04:28:21.575Z,97.75
2023-04-08T04:30:49.571Z,97.38
2023-04-08T04:33:17.557Z,97.83
2023-04-08T04:35:45.668Z,97.45
2023-04-08T04:38:13.686Z,97.35
2023-04-08T04:40:41.752Z,97.53
2023-04-08T04:43:11.298Z,97.04
2023-04-08T04:45:39.276Z,96.78
2023-04-08T04:48:07.827Z,96.71
2023-04-08T04:50:36.022Z,96.90
2023-04-08T04:53:04.098Z,96.84
2023-04-08T04:55:32.071Z,97.06
2023-04-08T04:57:59.994Z,96.48
2023-04-08T05:00:29.281Z,96.83
2023-04-08T05:02:57.297Z,96.76
2023-04-08T05:05:26.112Z,96.70
2023-04-08T05:07:54.032Z,96.24
2023-04-08T05:10:22.228Z,96.73
2023-04-08T05:12:50.388Z,96.24
2023-04-08T05:15:18.396Z,96.39
2023-04-08T05:17:47.831Z,96.03
2023-04-08T05:20:17.550Z,96.20
2023-04-08T05:22:45.688Z,96.70
2023-04-08T05:25:13.724Z,96.61
2023-04-08T05:27:41.725Z,95.95
2023-04-08T05:30:11.184Z,95.67
2023-04-08T05:32:39.179Z,95.81
2023-04-08T05:35:10.630Z,95.73
2023-04-08T05:37:38.806Z,96.18
2023-04-08T05:40:08.591Z,96.20
2023-04-08T05:42:36.505Z,96.01
2023-04-08T05:45:05.517Z,95.51
2023-04-08T05:47:34.422Z,95.04
2023-04-08T05:50:02.415Z,95.49
2023-04-08T05:52:31.955Z,95.17
2023-04-08T05:54:59.908Z,94.77
2023-04-08T05:57:28.041Z,95.06
2023-04-08T05:59:56.058Z,94.41
2023-04-08T06:02:24.007Z,94.76
2023-04-08T06:04:52.077Z,94.24
2023-04-08T06:07:19.987Z,94.71
2023-04-08T06:09:49.240Z,94.02
2023-04-08T06:12:17.251Z,93.83
2023-04-08T06:14:45.225Z,93.85
2023-04-08T06:17:13.200Z,93.78
2023-04-08T06:19:41.581Z,93.85
2023-04-08T06:22:09.549Z,94.11
2023-04-08T06:24:37.576Z,94.17
2023-04-08T06:27:07.440Z,93.96
2023-04-08T06:29:35.491Z,94.14
2023-04-08T06:32:03.586Z,93.45
2023-04-08T06:34:31.636Z,93.58
2023-04-08T06:36:59.570Z,93.57
2023-04-08T06:39:27.504Z,93.07
2023-04-08T06:41:55.611Z,92.60
2023-04-08T06:44:25.317Z,92.98
2023-04-08T06:46:53.090Z,92.19
2023-04-08T06:49:21.083Z,92.72
2023-04-08T06:51:49.046Z,92.41
2023-04-08T06:54:17.012Z,91.35
2023-04-08T06:56:44.917Z,91.88
2023-04-08T06:59:12.819Z,91.59
2023-04-08T07:01:42.362Z,91.50
2023-04-08T07:04:10.241Z,91.51
2023-04-08T07:06:38.190Z,92.05
2023-04-08T07:09:06.803Z,91.60
2023-04-08T07:11:34.896Z,91.82
2023-04-08T07:14:02.870Z,91.53
2023-04-08T07:16:30.884Z,91.30
2023-04-08T07:19:00.342Z,90.59
2023-04-08T07:21:28.382Z,90.80
2023-04-08T07:23:56.381Z,91.26
2023-04-08T07:26:24.346Z,91.48
2023-04-08T07:28:53.011Z,91.37
2023-04-08T07:31:21.283Z,90.61
2023-04-08T07:33:49.180Z,89.85
2023-04-08T07:36:18.576Z,89.93
2023-04-08T07:38:46.679Z,89.64
2023-04-08T07:41:14.647Z,88.79
2023-04-08T07:43:42.628Z,88.37
2023-04-08T07:46:10.523Z,87.52
2023-04-08T07:48:38.632Z,87.62
2023-04-08T07:51:11.163Z,87.71
2023-04-08T07:53:41.744Z,88.07
2023-04-08T07:56:14.187Z,87.42
2023-04-08T07:58:42.895Z,86.72
2023-04-08T08:01:19.803Z,86.34
2023-04-08T08:03:48.843Z,87.00
2023-04-08T08:06:17.226Z,86.77
2023-04-08T08:08:46.971Z,86.65
2023-04-08T08:11:14.991Z,86.51
2023-04-08T08:13:42.933Z,87.34
2023-04-08T08:16:12.079Z,87.40
2023-04-08T08:18:41.083Z,86.90
2023-04-08T08:21:13.595Z,84.41
2023-04-08T08:23:41.697Z,83.24
2023-04-08T08:26:11.888Z,81.57
2023-04-08T08:28:40.541Z,80.65
2023-04-08T08:31:08.605Z,81.76
2023-04-08T08:33:36.923Z,82.57
2023-04-08T08:36:05.989Z,83.10
2023-04-08T08:38:34.456Z,82.41
2023-04-08T08:41:04.132Z,83.08
2023-04-08T08:43:34.553Z,83.29
2023-04-08T08:46:03.309Z,83.41
2023-04-08T08:48:32.568Z,83.60
2023-04-08T08:51:00.908Z,84.60
2023-04-08T08:53:34.421Z,84.25
2023-04-08T08:58:36.208Z,83.89
2023-04-08T09:01:04.187Z,84.01
2023-04-08T09:03:32.628Z,83.42
2023-04-08T09:06:03.838Z,83.25
2023-04-08T09:08:33.930Z,82.36
2023-04-08T09:11:17.050Z,81.85
2023-04-08T09:13:48.005Z,82.06
2023-04-08T09:16:18.928Z,81.84
2023-04-08T09:18:49.647Z,82.00
2023-04-08T09:21:19.102Z,81.93
2023-04-08T09:23:49.634Z,81.75
2023-04-08T09:26:21.975Z,81.74
2023-04-08T09:29:14.333Z,81.82
2023-04-08T09:31:56.190Z,81.66
2023-04-08T09:34:25.505Z,82.69
2023-04-08T09:36:54.772Z,82.40
2023-04-08T09:39:22.843Z,80.92
2023-04-08T09:41:52.960Z,80.43
2023-04-08T09:44:24.712Z,81.17
2023-04-08T09:47:03.377Z,79.83
2023-04-08T09:49:38.962Z,79.40
2023-04-08T09:52:12.075Z,78.87
2023-04-08T09:54:49.144Z,78.33
2023-04-08T09:57:23.991Z,77.88
2023-04-08T10:00:02.225Z,77.31
2023-04-08T10:02:34.364Z,78.01
2023-04-08T10:05:08.141Z,77.41
2023-04-08T10:07:37.836Z,76.40
2023-04-08T10:10:07.970Z,75.71
2023-04-08T10:12:37.450Z,73.78
2023-04-08T10:15:28.193Z,73.64
2023-04-08T10:17:57.867Z,73.78
2023-04-08T10:20:45.778Z,72.86
2023-04-08T10:23:16.123Z,72.20
2023-04-08T10:25:45.378Z,71.42
2023-04-08T10:28:27.446Z,71.51
2023-04-08T10:30:58.682Z,71.64
2023-04-08T10:33:47.649Z,71.76
2023-04-08T10:36:16.450Z,71.03
2023-04-08T10:38:44.477Z,71.38
2023-04-08T10:41:14.024Z,70.39
2023-04-08T10:43:42.195Z,69.82
2023-04-08T10:46:12.999Z,70.41
2023-04-08T10:48:41.044Z,68.36
2023-04-08T10:51:08.973Z,67.32
2023-04-08T10:53:39.641Z,68.18
2023-04-08T10:56:10.926Z,67.54
2023-04-08T10:58:50.475Z,67.49
2023-04-08T11:01:21.266Z,65.94
2023-04-08T11:03:50.463Z,65.90
2023-04-08T11:06:19.419Z,65.50
2023-04-08T11:08:47.674Z,65.78
2023-04-08T11:11:16.318Z,66.43
2023-04-08T11:13:53.430Z,65.37
2023-04-08T11:16:41.547Z,64.98
2023-04-08T11:19:09.793Z,64.04
2023-04-08T11:21:39.199Z,63.75
2023-04-08T11:24:14.373Z,63.50
2023-04-08T11:26:43.923Z,62.21
2023-04-08T11:29:16.861Z,61.61
2023-04-08T11:31:47.245Z,61.90
2023-04-08T11:34:24.870Z,59.93
2023-04-08T11:36:53.254Z,60.22
2023-04-08T11:39:24.260Z,60.07
2023-04-08T11:41:53.266Z,59.46
2023-04-08T11:44:21.738Z,62.41
2023-04-08T11:46:57.235Z,59.87
2023-04-08T11:49:25.655Z,58.98
2023-04-08T11:51:59.409Z,57.93
2023-04-08T11:54:29.016Z,57.95
2023-04-08T11:56:58.267Z,57.95
2023-04-08T11:59:28.911Z,58.12
2023-04-08T12:01:59.022Z,58.70
2023-04-08T12:04:27.344Z,59.02
2023-04-08T12:06:56.916Z,59.00
2023-04-08T12:09:26.315Z,58.78
2023-04-08T12:11:54.225Z,58.73
2023-04-08T12:14:26.835Z,58.16
2023-04-08T12:16:56.105Z,58.58
2023-04-08T12:19:25.621Z,58.87
2023-04-08T12:21:53.560Z,58.93
2023-04-08T12:24:21.916Z,59.11
2023-04-08T12:26:49.812Z,58.59
2023-04-08T12:29:17.761Z,57.10
2023-04-08T12:31:45.803Z,57.25
2023-04-08T12:34:13.784Z,57.65
2023-04-08T12:36:43.083Z,57.81
2023-04-08T12:39:11.127Z,57.61
2023-04-08T12:41:39.126Z,57.19
2023-04-08T12:44:07.793Z,57.97
2023-04-08T12:46:35.876Z,59.11
2023-04-08T12:49:05.262Z,58.22
2023-04-08T12:51:33.524Z,57.53
2023-04-08T12:54:03.609Z,56.66
2023-04-08T12:56:32.023Z,55.91
2023-04-08T12:59:01.023Z,54.93
2023-04-08T13:01:35.323Z,55.84
2023-04-08T13:04:14.670Z,57.20
2023-04-08T13:06:42.704Z,56.96
2023-04-08T13:09:12.195Z,56.66
2023-04-08T13:11:40.205Z,56.33
2023-04-08T13:14:08.486Z,55.90
2023-04-08T13:16:37.115Z,56.01
2023-04-08T13:19:05.224Z,55.52
2023-04-08T13:21:33.194Z,55.84
2023-04-08T13:24:01.143Z,54.57
2023-04-08T13:26:30.537Z,53.40
2023-04-08T13:28:58.647Z,52.39
2023-04-08T13:31:27.208Z,52.08
2023-04-08T13:33:57.998Z,50.63
2023-04-08T13:36:29.042Z,51.74
2023-04-08T13:38:57.535Z,51.49
2023-04-08T13:41:28.034Z,50.03
2023-04-08T13:43:57.627Z,49.75
2023-04-08T13:46:25.783Z,50.15
2023-04-08T13:48:54.010Z,51.26
2023-04-08T13:51:22.145Z,51.80
2023-04-08T13:53:50.224Z,51.31
2023-04-08T13:56:18.144Z,50.03
2023-04-08T13:58:52.302Z,51.08
2023-04-08T14:01:26.182Z,50.20
2023-04-08T14:03:54.220Z,51.90
2023-04-08T14:06:22.304Z,52.05
2023-04-08T14:08:50.465Z,54.16
2023-04-08T14:11:18.586Z,54.12
2023-04-08T14:13:46.569Z,53.88
2023-04-08T14:16:15.433Z,53.96
2023-04-08T14:18:44.789Z,54.15
2023-04-08T14:21:14.153Z,53.17
2023-04-08T14:23:42.463Z,52.60
2023-04-08T14:26:10.395Z,51.62
2023-04-08T14:28:38.347Z,51.57
2023-04-08T14:31:06.374Z,50.78
2023-04-08T14:33:34.320Z,50.05
2023-04-08T14:36:03.802Z,50.61
2023-04-08T14:38:31.784Z,50.36
2023-04-08T14:40:59.742Z,51.14
2023-04-08T14:43:27.669Z,52.39
2023-04-08T14:45:55.789Z,51.85
2023-04-08T14:48:25.753Z,50.93
2023-04-08T14:50:53.686Z,50.96
2023-04-08T14:53:23.334Z,50.10
2023-04-08T14:55:51.418Z,51.41
2023-04-08T14:58:20.364Z,50.87
2023-04-08T15:00:48.694Z,51.99
2023-04-08T15:03:18.018Z,51.34
2023-04-08T15:05:46.292Z,51.98
2023-04-08T15:08:14.549Z,50.69
2023-04-08T15:10:43.853Z,51.07
2023-04-08T15:13:11.854Z,51.13
2023-04-08T15:15:39.977Z,50.86
2023-04-08T15:18:08.068Z,50.55
2023-04-08T15:20:36.181Z,49.82
2023-04-08T15:23:04.416Z,48.29
2023-04-08T15:25:32.869Z,49.23
2023-04-08T15:28:03.451Z,49.34
2023-04-08T15:30:35.507Z,47.68
2023-04-08T15:33:04.925Z,48.89
2023-04-08T15:35:33.575Z,50.10
2023-04-08T15:38:01.750Z,50.47
2023-04-08T15:40:32.111Z,51.39
2023-04-08T15:43:01.379Z,51.13
2023-04-08T15:45:29.550Z,49.30
2023-04-08T15:47:57.544Z,47.85
2023-04-08T15:50:29.163Z,47.69
2023-04-08T15:52:57.292Z,46.97
2023-04-08T15:55:25.302Z,44.69
2023-04-08T15:57:56.439Z,45.11
2023-04-08T16:00:26.131Z,44.13
2023-04-08T16:02:54.330Z,45.16
2023-04-08T16:05:22.565Z,44.53
2023-04-08T16:07:50.563Z,41.50
2023-04-08T16:10:18.768Z,42.45
2023-04-08T16:12:47.278Z,44.98
2023-04-08T16:15:15.524Z,46.42
2023-04-08T16:17:44.789Z,47.79
2023-04-08T16:20:13.007Z,49.82
2023-04-08T16:22:40.954Z,53.11
2023-04-08T16:25:09.723Z,55.69
2023-04-08T16:27:38.336Z,57.42
2023-04-08T16:30:07.865Z,58.74
2023-04-08T16:32:35.864Z,59.73
2023-04-08T16:35:06.013Z,60.47
2023-04-08T16:37:34.009Z,60.39
2023-04-08T16:40:03.124Z,62.05
2023-04-08T16:42:31.173Z,62.06
2023-04-08T16:44:59.757Z,62.90
2023-04-08T16:47:27.773Z,63.41
2023-04-08T16:49:55.945Z,63.50
2023-04-08T16:52:25.366Z,63.90
2023-04-08T16:54:53.398Z,64.68
2023-04-08T16:57:21.351Z,63.33
2023-04-08T16:59:49.274Z,64.06
2023-04-08T17:02:17.310Z,64.00
2023-04-08T17:04:45.329Z,64.59
2023-04-08T17:07:14.578Z,64.69
2023-04-08T17:09:44.363Z,64.24
2023-04-08T17:12:12.299Z,64.78
2023-04-08T17:14:40.546Z,65.03
2023-04-08T17:17:08.451Z,65.12
2023-04-08T17:19:36.621Z,66.26
2023-04-08T17:22:04.648Z,66.87
2023-04-08T17:24:32.631Z,67.34
2023-04-08T17:27:02.070Z,67.65
2023-04-08T17:29:30.096Z,67.97
2023-04-08T17:31:57.994Z,68.21
2023-04-08T17:34:26.341Z,68.43
2023-04-08T17:36:54.339Z,68.25
2023-04-08T17:39:22.233Z,69.33
2023-04-08T17:41:50.157Z,68.78
2023-04-08T17:44:19.478Z,68.68
2023-04-08T17:46:47.387Z,68.41
2023-04-08T17:49:15.356Z,67.09
2023-04-08T17:51:43.274Z,66.09
2023-04-08T17:54:11.619Z,65.50
2023-04-08T17:56:39.840Z,64.80
2023-04-08T17:59:07.741Z,64.20
2023-04-08T18:01:37.552Z,64.61
2023-04-08T18:04:08.191Z,64.93
2023-04-08T18:06:36.613Z,64.58
2023-04-08T18:09:05.177Z,64.41
2023-04-08T18:11:33.222Z,65.07
2023-04-08T18:14:01.159Z,64.98
2023-04-08T18:16:29.094Z,64.51
2023-04-08T18:18:58.386Z,64.41
2023-04-08T18:21:27.084Z,64.33
2023-04-08T18:23:55.069Z,63.79
2023-04-08T18:26:23.146Z,64.44
2023-04-08T18:28:51.116Z,65.27
2023-04-08T18:31:19.221Z,64.95
2023-04-08T18:33:47.221Z,65.07
2023-04-08T18:36:17.355Z,64.20
2023-04-08T18:38:45.640Z,64.74
2023-04-08T18:41:13.735Z,64.52
2023-04-08T18:43:41.742Z,64.79
2023-04-08T18:46:09.834Z,65.36
2023-04-08T18:48:37.779Z,65.41
2023-04-08T18:51:05.706Z,65.11
2023-04-08T18:53:35.122Z,65.00
2023-04-08T18:56:03.068Z,65.27
2023-04-08T18:58:31.431Z,65.74
2023-04-08T19:00:59.458Z,66.26
2023-04-08T19:03:27.575Z,65.72
2023-04-08T19:05:55.691Z,65.71
2023-04-08T19:08:23.808Z,65.87
2023-04-08T19:10:53.118Z,65.65
2023-04-08T19:13:22.145Z,65.61
2023-04-08T19:15:50.081Z,65.98
2023-04-08T19:18:18.056Z,65.41
2023-04-08T19:20:46.840Z,66.02
2023-04-08T19:23:15.677Z,66.18
2023-04-08T19:25:43.962Z,65.72
2023-04-08T19:28:14.285Z,65.24
2023-04-08T19:30:42.610Z,65.24
2023-04-08T19:33:10.660Z,65.81
2023-04-08T19:35:39.147Z,65.47
2023-04-08T19:38:07.110Z,66.39
2023-04-08T19:40:35.226Z,66.04
2023-04-08T19:43:03.223Z,66.17
2023-04-08T19:45:32.509Z,65.96
2023-04-08T19:48:01.164Z,66.45
2023-04-08T19:50:29.360Z,66.49
2023-04-08T19:52:57.396Z,65.31
2023-04-08T19:55:25.346Z,65.46
2023-04-08T19:57:53.907Z,65.32
2023-04-08T20:00:21.990Z,65.52
2023-04-08T20:02:51.515Z,64.63
2023-04-08T20:05:19.618Z,64.57
2023-04-08T20:07:47.647Z,63.96
2023-04-08T20:10:15.858Z,63.08
2023-04-08T20:12:43.837Z,62.85
2023-04-08T20:15:23.597Z,63.32
2023-04-08T20:17:54.550Z,64.00
2023-04-08T20:20:23.157Z,65.19
2023-04-08T20:22:51.190Z,65.33
2023-04-08T20:25:19.491Z,66.28
2023-04-08T20:27:47.421Z,66.24
2023-04-08T20:30:15.730Z,66.12
2023-04-08T20:32:44.155Z,65.47
2023-04-08T20:35:13.735Z,65.90
2023-04-08T20:37:41.880Z,66.11
2023-04-08T20:40:11.096Z,65.63
2023-04-08T20:42:39.438Z,65.75
2023-04-08T20:45:09.372Z,65.07
2023-04-08T20:47:37.444Z,65.36
2023-04-08T20:50:06.395Z,65.46
2023-04-08T20:52:35.679Z,65.80
2023-04-08T20:55:03.674Z,65.84
2023-04-08T20:57:31.608Z,65.41
2023-04-08T20:59:59.766Z,65.49
2023-04-08T21:02:27.845Z,65.81
2023-04-08T21:04:56.061Z,65.50
2023-04-08T21:07:26.329Z,65.32
2023-04-08T21:09:55.728Z,65.70
2023-04-08T21:12:23.795Z,66.29
2023-04-08T21:14:51.841Z,66.15
2023-04-08T21:17:19.811Z,65.89
2023-04-08T21:19:47.928Z,65.31
2023-04-08T21:22:16.349Z,65.15
2023-04-08T21:24:44.364Z,64.76
2023-04-08T21:27:13.665Z,64.78
2023-04-08T21:29:41.611Z,65.29
2023-04-08T21:32:09.667Z,65.03
2023-04-08T21:34:37.615Z,65.06
2023-04-08T21:37:06.074Z,64.94
2023-04-08T21:39:34.112Z,65.06
2023-04-08T21:42:02.572Z,64.87
2023-04-08T21:44:31.888Z,65.21
2023-04-08T21:47:01.697Z,65.21
2023-04-08T21:49:30.694Z,65.43
2023-04-08T21:51:58.604Z,65.11
2023-04-08T21:54:26.408Z,65.66
2023-04-08T21:56:54.332Z,65.26
2023-04-08T21:59:22.200Z,65.59
2023-04-08T22:01:51.609Z,65.83
2023-04-08T22:04:20.503Z,67.60
2023-04-08T22:06:49.280Z,67.77
2023-04-08T22:09:17.832Z,69.41
2023-04-08T22:11:45.975Z,70.34
2023-04-08T22:14:13.853Z,71.03
2023-04-08T22:16:42.146Z,71.16
2023-04-08T22:19:11.706Z,71.31
2023-04-08T22:21:39.636Z,69.94
2023-04-08T22:24:07.821Z,69.84
2023-04-08T22:26:35.836Z,69.73
2023-04-08T22:29:03.777Z,70.50
2023-04-08T22:31:31.741Z,70.93
2023-04-08T22:33:59.845Z,71.73
2023-04-08T22:36:29.230Z,71.56
2023-04-08T22:38:57.193Z,72.12
2023-04-08T22:41:25.605Z,72.33
2023-04-08T22:43:53.674Z,72.69
2023-04-08T22:46:21.591Z,73.17
2023-04-08T22:48:50.176Z,73.25
2023-04-08T22:51:18.301Z,73.56
2023-04-08T22:53:47.664Z,74.15
2023-04-08T22:56:15.599Z,74.64
2023-04-08T22:58:43.652Z,74.97
2023-04-08T23:01:13.899Z,75.89
2023-04-08T23:03:42.470Z,75.56
2023-04-08T23:06:10.826Z,76.32
2023-04-08T23:08:38.921Z,76.33
2023-04-08T23:11:08.584Z,76.90
2023-04-08T23:13:36.377Z,77.85
2023-04-08T23:16:04.436Z,78.47
2023-04-08T23:18:32.494Z,79.18
2023-04-08T23:21:00.385Z,79.50
2023-04-08T23:23:28.272Z,79.69
2023-04-08T23:25:56.174Z,80.29
2023-04-08T23:28:25.516Z,80.40
2023-04-08T23:30:53.534Z,80.73
2023-04-08T23:33:21.611Z,80.83
2023-04-08T23:35:49.633Z,80.92
2023-04-08T23:38:17.743Z,81.49
2023-04-08T23:40:45.814Z,81.00
2023-04-08T23:43:13.803Z,80.96
2023-04-08T23:45:43.227Z,80.55
2023-04-08T23:48:11.131Z,80.70
2023-04-08T23:50:39.144Z,80.86
2023-04-08T23:53:07.039Z,80.39
2023-04-08T23:55:35.054Z,80.57
2023-04-08T23:58:02.973Z,81.04
